Terminal Aerodrome Forecast
Issued by NWS Houston/Galveston, TX

Home | Current Version | Previous Version | Text Only | Print | Product List | Glossary On
Versions: 1 2 3 4 5 6 7 8 9 10 11 12 13 14 15 16 17 18 19 20 21 22 23 24 25 26
000
FTUS44 KHGX 042326
TAFGLS
TAF
KGLS 042326Z 0500/0524 11013KT P6SM SKC
     FM050600 12015KT P6SM FEW020
      TEMPO 0508/0510 BKN025
     FM051000 12013KT P6SM VCSH BKN025
      TEMPO 0510/0513 SHRA
     FM051300 13016KT P6SM VCTS BKN027CB OVC250
      TEMPO 0513/0517 TSRA
     FM051700 13015KT P6SM VCSH SCT027 BKN050 OVC250 PROB30
      0517/0520 SHRA=

USA.gov is the U.S. government's official web portal to all federal, state and local government web resources and services.